sensor_id;sensor_type;location;lat;lon;timestamp;P1;durP1;ratioP1;P2;durP2;ratioP2
9076;SDS011;4574;51.072;17.174;2022-09-24T00:02:21;21.30;;;11.77;;
9076;SDS011;4574;51.072;17.174;2022-09-24T00:04:49;16.17;;;10.13;;
9076;SDS011;4574;51.072;17.174;2022-09-24T00:07:18;16.50;;;9.67;;
9076;SDS011;4574;51.072;17.174;2022-09-24T00:09:46;16.87;;;10.63;;
9076;SDS011;4574;51.072;17.174;2022-09-24T00:12:16;19.70;;;10.47;;
9076;SDS011;4574;51.072;17.174;2022-09-24T00:14:44;16.30;;;9.47;;
9076;SDS011;4574;51.072;17.174;2022-09-24T00:17:13;16.10;;;9.63;;
9076;SDS011;4574;51.072;17.174;2022-09-24T00:19:41;15.30;;;10.17;;
9076;SDS011;4574;51.072;17.174;2022-09-24T00:22:10;17.63;;;9.37;;
9076;SDS011;4574;51.072;17.174;2022-09-24T00:24:38;15.57;;;10.00;;
9076;SDS011;4574;51.072;17.174;2022-09-24T00:27:26;14.97;;;9.10;;
9076;SDS011;4574;51.072;17.174;2022-09-24T00:29:54;18.60;;;8.80;;
9076;SDS011;4574;51.072;17.174;2022-09-24T00:32:23;13.93;;;8.53;;
9076;SDS011;4574;51.072;17.174;2022-09-24T00:34:52;16.13;;;9.40;;
9076;SDS011;4574;51.072;17.174;2022-09-24T00:37:21;16.40;;;8.87;;
9076;SDS011;4574;51.072;17.174;2022-09-24T00:39:50;14.20;;;9.43;;
9076;SDS011;4574;51.072;17.174;2022-09-24T00:42:18;11.83;;;8.57;;
9076;SDS011;4574;51.072;17.174;2022-09-24T00:44:51;15.30;;;9.47;;
9076;SDS011;4574;51.072;17.174;2022-09-24T00:47:31;16.07;;;9.43;;
9076;SDS011;4574;51.072;17.174;2022-09-24T00:50:05;16.23;;;9.10;;
9076;SDS011;4574;51.072;17.174;2022-09-24T00:52:41;15.13;;;9.27;;
9076;SDS011;4574;51.072;17.174;2022-09-24T00:55:12;14.97;;;9.43;;
9076;SDS011;4574;51.072;17.174;2022-09-24T00:57:42;13.77;;;8.43;;
9076;SDS011;4574;51.072;17.174;2022-09-24T01:00:13;12.00;;;8.87;;
9076;SDS011;4574;51.072;17.174;2022-09-24T01:02:43;16.10;;;9.20;;
9076;SDS011;4574;51.072;17.174;2022-09-24T01:05:14;18.03;;;9.97;;
9076;SDS011;4574;51.072;17.174;2022-09-24T01:07:43;14.83;;;9.50;;
9076;SDS011;4574;51.072;17.174;2022-09-24T01:10:14;18.20;;;9.73;;
9076;SDS011;4574;51.072;17.174;2022-09-24T01:13:06;18.20;;;9.37;;
9076;SDS011;4574;51.072;17.174;2022-09-24T01:15:46;14.17;;;9.83;;
9076;SDS011;4574;51.072;17.174;2022-09-24T01:18:24;15.17;;;9.97;;
9076;SDS011;4574;51.072;17.174;2022-09-24T01:21:14;12.30;;;8.83;;
9076;SDS011;4574;51.072;17.174;2022-09-24T01:26:54;15.43;;;9.80;;
9076;SDS011;4574;51.072;17.174;2022-09-24T01:29:31;12.37;;;8.70;;
9076;SDS011;4574;51.072;17.174;2022-09-24T01:32:09;17.60;;;9.83;;
9076;SDS011;4574;51.072;17.174;2022-09-24T01:34:46;16.70;;;9.90;;
9076;SDS011;4574;51.072;17.174;2022-09-24T01:37:20;15.67;;;10.00;;
9076;SDS011;4574;51.072;17.174;2022-09-24T01:39:51;13.60;;;9.07;;
9076;SDS011;4574;51.072;17.174;2022-09-24T01:42:23;18.53;;;10.50;;
9076;SDS011;4574;51.072;17.174;2022-09-24T01:44:56;18.00;;;10.33;;
9076;SDS011;4574;51.072;17.174;2022-09-24T01:47:29;19.40;;;10.47;;
9076;SDS011;4574;51.072;17.174;2022-09-24T01:50:00;17.03;;;10.00;;
9076;SDS011;4574;51.072;17.174;2022-09-24T01:52:30;15.30;;;10.77;;
9076;SDS011;4574;51.072;17.174;2022-09-24T01:55:08;16.17;;;10.23;;
9076;SDS011;4574;51.072;17.174;2022-09-24T01:57:40;15.20;;;9.53;;
9076;SDS011;4574;51.072;17.174;2022-09-24T02:00:16;16.40;;;9.97;;
9076;SDS011;4574;51.072;17.174;2022-09-24T02:02:46;21.00;;;9.17;;
9076;SDS011;4574;51.072;17.174;2022-09-24T02:05:23;16.57;;;10.00;;
9076;SDS011;4574;51.072;17.174;2022-09-24T02:07:56;12.77;;;8.80;;
9076;SDS011;4574;51.072;17.174;2022-09-24T02:10:33;13.17;;;9.60;;
9076;SDS011;4574;51.072;17.174;2022-09-24T02:13:05;13.90;;;9.47;;
9076;SDS011;4574;51.072;17.174;2022-09-24T02:15:41;12.83;;;9.03;;
9076;SDS011;4574;51.072;17.174;2022-09-24T02:18:14;14.00;;;9.50;;
9076;SDS011;4574;51.072;17.174;2022-09-24T02:20:45;14.47;;;10.50;;
9076;SDS011;4574;51.072;17.174;2022-09-24T02:23:15;19.13;;;11.77;;
9076;SDS011;4574;51.072;17.174;2022-09-24T02:25:47;18.57;;;11.40;;
9076;SDS011;4574;51.072;17.174;2022-09-24T02:28:19;17.90;;;11.50;;
9076;SDS011;4574;51.072;17.174;2022-09-24T02:30:50;15.63;;;10.80;;
9076;SDS011;4574;51.072;17.174;2022-09-24T02:33:24;17.67;;;11.13;;
9076;SDS011;4574;51.072;17.174;2022-09-24T02:36:13;14.77;;;9.70;;
9076;SDS011;4574;51.072;17.174;2022-09-24T02:38:42;14.43;;;9.87;;
9076;SDS011;4574;51.072;17.174;2022-09-24T02:41:12;13.37;;;9.17;;
9076;SDS011;4574;51.072;17.174;2022-09-24T02:43:41;12.80;;;9.10;;
9076;SDS011;4574;51.072;17.174;2022-09-24T02:46:11;14.90;;;9.27;;
9076;SDS011;4574;51.072;17.174;2022-09-24T02:48:40;17.30;;;10.13;;
9076;SDS011;4574;51.072;17.174;2022-09-24T02:51:08;12.03;;;8.33;;
9076;SDS011;4574;51.072;17.174;2022-09-24T02:53:40;12.83;;;9.10;;
9076;SDS011;4574;51.072;17.174;2022-09-24T02:56:08;12.57;;;9.00;;
9076;SDS011;4574;51.072;17.174;2022-09-24T02:58:37;12.30;;;9.17;;
9076;SDS011;4574;51.072;17.174;2022-09-24T03:01:05;12.77;;;8.67;;
9076;SDS011;4574;51.072;17.174;2022-09-24T03:03:35;13.90;;;9.03;;
9076;SDS011;4574;51.072;17.174;2022-09-24T03:06:04;12.17;;;8.40;;
9076;SDS011;4574;51.072;17.174;2022-09-24T03:08:33;12.77;;;9.03;;
9076;SDS011;4574;51.072;17.174;2022-09-24T03:11:02;15.97;;;8.70;;
9076;SDS011;4574;51.072;17.174;2022-09-24T03:13:31;13.70;;;8.73;;
9076;SDS011;4574;51.072;17.174;2022-09-24T03:16:00;14.37;;;8.90;;
9076;SDS011;4574;51.072;17.174;2022-09-24T03:18:29;12.23;;;9.00;;
9076;SDS011;4574;51.072;17.174;2022-09-24T03:21:00;11.70;;;8.50;;
9076;SDS011;4574;51.072;17.174;2022-09-24T03:23:31;13.73;;;8.83;;
9076;SDS011;4574;51.072;17.174;2022-09-24T03:26:00;16.80;;;8.87;;
9076;SDS011;4574;51.072;17.174;2022-09-24T03:28:29;13.17;;;8.43;;
9076;SDS011;4574;51.072;17.174;2022-09-24T03:30:58;14.30;;;8.30;;
9076;SDS011;4574;51.072;17.174;2022-09-24T03:33:26;15.20;;;9.03;;
9076;SDS011;4574;51.072;17.174;2022-09-24T03:35:55;13.47;;;8.73;;
9076;SDS011;4574;51.072;17.174;2022-09-24T03:38:26;13.90;;;8.53;;
9076;SDS011;4574;51.072;17.174;2022-09-24T03:40:55;12.77;;;8.33;;
9076;SDS011;4574;51.072;17.174;2022-09-24T03:43:24;14.77;;;9.37;;
9076;SDS011;4574;51.072;17.174;2022-09-24T03:45:53;14.23;;;9.33;;
9076;SDS011;4574;51.072;17.174;2022-09-24T03:48:23;13.50;;;9.33;;
9076;SDS011;4574;51.072;17.174;2022-09-24T03:50:53;15.77;;;9.43;;
9076;SDS011;4574;51.072;17.174;2022-09-24T03:53:21;13.70;;;9.80;;
9076;SDS011;4574;51.072;17.174;2022-09-24T03:55:53;12.73;;;9.80;;
9076;SDS011;4574;51.072;17.174;2022-09-24T03:58:23;15.23;;;9.30;;
9076;SDS011;4574;51.072;17.174;2022-09-24T04:00:52;13.57;;;9.07;;
9076;SDS011;4574;51.072;17.174;2022-09-24T04:03:21;13.30;;;9.47;;
9076;SDS011;4574;51.072;17.174;2022-09-24T04:05:49;14.40;;;9.30;;
9076;SDS011;4574;51.072;17.174;2022-09-24T04:08:18;13.77;;;8.83;;
9076;SDS011;4574;51.072;17.174;2022-09-24T04:10:47;19.23;;;8.67;;
9076;SDS011;4574;51.072;17.174;2022-09-24T04:13:18;13.33;;;8.67;;
9076;SDS011;4574;51.072;17.174;2022-09-24T04:15:46;17.40;;;8.90;;
9076;SDS011;4574;51.072;17.174;2022-09-24T04:18:16;19.93;;;9.63;;
9076;SDS011;4574;51.072;17.174;2022-09-24T04:20:45;14.53;;;9.27;;
9076;SDS011;4574;51.072;17.174;2022-09-24T04:23:13;13.13;;;8.80;;
9076;SDS011;4574;51.072;17.174;2022-09-24T04:25:42;15.33;;;9.43;;
9076;SDS011;4574;51.072;17.174;2022-09-24T04:28:10;14.20;;;9.13;;
9076;SDS011;4574;51.072;17.174;2022-09-24T04:30:40;14.37;;;9.67;;
9076;SDS011;4574;51.072;17.174;2022-09-24T04:33:09;14.63;;;9.30;;
9076;SDS011;4574;51.072;17.174;2022-09-24T04:35:38;13.27;;;9.67;;
9076;SDS011;4574;51.072;17.174;2022-09-24T04:38:07;15.43;;;9.03;;
9076;SDS011;4574;51.072;17.174;2022-09-24T04:40:37;12.73;;;8.93;;
9076;SDS011;4574;51.072;17.174;2022-09-24T04:43:05;15.53;;;9.73;;
9076;SDS011;4574;51.072;17.174;2022-09-24T04:45:34;14.87;;;8.73;;
9076;SDS011;4574;51.072;17.174;2022-09-24T04:48:05;13.80;;;9.23;;
9076;SDS011;4574;51.072;17.174;2022-09-24T04:50:34;15.33;;;9.60;;
9076;SDS011;4574;51.072;17.174;2022-09-24T04:53:10;15.23;;;10.00;;
9076;SDS011;4574;51.072;17.174;2022-09-24T04:55:38;17.17;;;11.00;;
9076;SDS011;4574;51.072;17.174;2022-09-24T04:58:07;11.40;;;9.33;;
9076;SDS011;4574;51.072;17.174;2022-09-24T05:00:36;19.00;;;11.57;;
9076;SDS011;4574;51.072;17.174;2022-09-24T05:03:06;20.17;;;12.73;;
9076;SDS011;4574;51.072;17.174;2022-09-24T05:05:34;16.97;;;11.43;;
9076;SDS011;4574;51.072;17.174;2022-09-24T05:08:03;16.97;;;11.17;;
9076;SDS011;4574;51.072;17.174;2022-09-24T05:10:31;18.37;;;12.07;;
9076;SDS011;4574;51.072;17.174;2022-09-24T05:13:00;22.07;;;12.63;;
9076;SDS011;4574;51.072;17.174;2022-09-24T05:15:28;20.20;;;12.80;;
9076;SDS011;4574;51.072;17.174;2022-09-24T05:17:57;22.20;;;12.37;;
9076;SDS011;4574;51.072;17.174;2022-09-24T05:20:27;22.83;;;12.57;;
9076;SDS011;4574;51.072;17.174;2022-09-24T05:22:55;18.60;;;10.97;;
9076;SDS011;4574;51.072;17.174;2022-09-24T05:25:24;17.03;;;10.63;;
9076;SDS011;4574;51.072;17.174;2022-09-24T05:27:53;15.30;;;10.13;;
9076;SDS011;4574;51.072;17.174;2022-09-24T05:30:21;15.53;;;10.90;;
9076;SDS011;4574;51.072;17.174;2022-09-24T05:32:51;14.53;;;10.50;;
9076;SDS011;4574;51.072;17.174;2022-09-24T05:35:20;15.23;;;10.23;;
9076;SDS011;4574;51.072;17.174;2022-09-24T05:37:51;17.77;;;11.40;;
9076;SDS011;4574;51.072;17.174;2022-09-24T05:40:20;15.00;;;10.67;;
9076;SDS011;4574;51.072;17.174;2022-09-24T05:43:06;18.40;;;12.03;;
9076;SDS011;4574;51.072;17.174;2022-09-24T05:45:35;14.40;;;10.53;;
9076;SDS011;4574;51.072;17.174;2022-09-24T05:48:03;16.67;;;10.67;;
9076;SDS011;4574;51.072;17.174;2022-09-24T05:50:32;17.03;;;11.07;;
9076;SDS011;4574;51.072;17.174;2022-09-24T05:53:03;14.20;;;10.33;;
9076;SDS011;4574;51.072;17.174;2022-09-24T05:55:33;19.53;;;11.87;;
9076;SDS011;4574;51.072;17.174;2022-09-24T05:58:03;16.67;;;10.23;;
9076;SDS011;4574;51.072;17.174;2022-09-24T06:00:33;15.27;;;11.37;;
9076;SDS011;4574;51.072;17.174;2022-09-24T06:03:03;19.20;;;11.63;;
9076;SDS011;4574;51.072;17.174;2022-09-24T06:05:33;13.80;;;10.67;;
9076;SDS011;4574;51.072;17.174;2022-09-24T06:08:04;19.80;;;11.20;;
9076;SDS011;4574;51.072;17.174;2022-09-24T06:10:34;17.93;;;11.27;;
9076;SDS011;4574;51.072;17.174;2022-09-24T06:13:03;16.67;;;10.03;;
9076;SDS011;4574;51.072;17.174;2022-09-24T06:15:32;16.77;;;10.27;;
9076;SDS011;4574;51.072;17.174;2022-09-24T06:18:01;13.97;;;9.50;;
9076;SDS011;4574;51.072;17.174;2022-09-24T06:20:30;17.57;;;9.57;;
9076;SDS011;4574;51.072;17.174;2022-09-24T06:22:59;11.43;;;8.47;;
9076;SDS011;4574;51.072;17.174;2022-09-24T06:25:30;11.70;;;9.10;;
9076;SDS011;4574;51.072;17.174;2022-09-24T06:27:59;11.20;;;8.67;;
9076;SDS011;4574;51.072;17.174;2022-09-24T06:30:31;11.93;;;8.70;;
9076;SDS011;4574;51.072;17.174;2022-09-24T06:33:01;14.37;;;9.73;;
9076;SDS011;4574;51.072;17.174;2022-09-24T06:35:32;13.63;;;9.80;;
9076;SDS011;4574;51.072;17.174;2022-09-24T06:38:01;15.50;;;10.70;;
9076;SDS011;4574;51.072;17.174;2022-09-24T06:40:32;16.33;;;9.67;;
9076;SDS011;4574;51.072;17.174;2022-09-24T06:43:03;12.30;;;9.50;;
9076;SDS011;4574;51.072;17.174;2022-09-24T06:45:32;12.43;;;8.57;;
9076;SDS011;4574;51.072;17.174;2022-09-24T06:48:02;14.37;;;9.13;;
9076;SDS011;4574;51.072;17.174;2022-09-24T06:50:32;12.70;;;8.23;;
9076;SDS011;4574;51.072;17.174;2022-09-24T06:53:03;14.97;;;8.13;;
9076;SDS011;4574;51.072;17.174;2022-09-24T06:55:34;10.43;;;7.80;;
9076;SDS011;4574;51.072;17.174;2022-09-24T06:58:04;12.67;;;7.33;;
9076;SDS011;4574;51.072;17.174;2022-09-24T07:00:33;11.30;;;7.23;;
9076;SDS011;4574;51.072;17.174;2022-09-24T07:03:03;11.93;;;8.07;;
9076;SDS011;4574;51.072;17.174;2022-09-24T07:05:32;12.47;;;7.33;;
9076;SDS011;4574;51.072;17.174;2022-09-24T07:08:08;9.17;;;7.00;;
9076;SDS011;4574;51.072;17.174;2022-09-24T07:10:40;17.10;;;7.50;;
9076;SDS011;4574;51.072;17.174;2022-09-24T07:13:10;10.53;;;6.93;;
9076;SDS011;4574;51.072;17.174;2022-09-24T07:15:39;10.23;;;6.80;;
9076;SDS011;4574;51.072;17.174;2022-09-24T07:18:08;10.63;;;7.47;;
9076;SDS011;4574;51.072;17.174;2022-09-24T07:20:37;8.80;;;6.87;;
9076;SDS011;4574;51.072;17.174;2022-09-24T07:23:07;12.80;;;7.10;;
9076;SDS011;4574;51.072;17.174;2022-09-24T07:25:38;8.77;;;6.60;;
9076;SDS011;4574;51.072;17.174;2022-09-24T07:28:07;12.07;;;6.90;;
9076;SDS011;4574;51.072;17.174;2022-09-24T07:30:37;8.60;;;6.77;;
9076;SDS011;4574;51.072;17.174;2022-09-24T07:33:07;11.43;;;6.90;;
9076;SDS011;4574;51.072;17.174;2022-09-24T07:35:36;9.57;;;6.47;;
9076;SDS011;4574;51.072;17.174;2022-09-24T07:38:06;9.27;;;6.30;;
9076;SDS011;4574;51.072;17.174;2022-09-24T07:40:39;9.17;;;6.43;;
9076;SDS011;4574;51.072;17.174;2022-09-24T07:43:08;8.80;;;6.30;;
9076;SDS011;4574;51.072;17.174;2022-09-24T07:45:39;10.43;;;5.43;;
9076;SDS011;4574;51.072;17.174;2022-09-24T07:48:09;8.33;;;5.60;;
9076;SDS011;4574;51.072;17.174;2022-09-24T07:50:38;9.30;;;5.50;;
9076;SDS011;4574;51.072;17.174;2022-09-24T07:53:09;10.33;;;5.47;;
9076;SDS011;4574;51.072;17.174;2022-09-24T07:55:40;6.97;;;5.07;;
9076;SDS011;4574;51.072;17.174;2022-09-24T07:58:10;6.30;;;4.80;;
9076;SDS011;4574;51.072;17.174;2022-09-24T08:00:40;7.57;;;5.57;;
9076;SDS011;4574;51.072;17.174;2022-09-24T08:03:09;7.30;;;4.60;;
9076;SDS011;4574;51.072;17.174;2022-09-24T08:05:41;10.83;;;5.43;;
9076;SDS011;4574;51.072;17.174;2022-09-24T08:08:11;6.77;;;5.20;;
9076;SDS011;4574;51.072;17.174;2022-09-24T08:10:41;8.80;;;4.70;;
9076;SDS011;4574;51.072;17.174;2022-09-24T08:13:10;7.23;;;4.80;;
9076;SDS011;4574;51.072;17.174;2022-09-24T08:15:39;9.30;;;4.13;;
9076;SDS011;4574;51.072;17.174;2022-09-24T08:18:07;6.47;;;3.80;;
9076;SDS011;4574;51.072;17.174;2022-09-24T08:20:36;4.67;;;3.47;;
9076;SDS011;4574;51.072;17.174;2022-09-24T08:23:06;6.63;;;3.70;;
9076;SDS011;4574;51.072;17.174;2022-09-24T08:25:36;4.50;;;3.20;;
9076;SDS011;4574;51.072;17.174;2022-09-24T08:28:07;5.10;;;3.47;;
9076;SDS011;4574;51.072;17.174;2022-09-24T08:30:38;6.43;;;3.67;;
9076;SDS011;4574;51.072;17.174;2022-09-24T08:33:07;3.93;;;3.20;;
9076;SDS011;4574;51.072;17.174;2022-09-24T08:35:36;4.23;;;3.17;;
9076;SDS011;4574;51.072;17.174;2022-09-24T08:38:06;4.97;;;3.50;;
9076;SDS011;4574;51.072;17.174;2022-09-24T08:40:36;4.83;;;3.50;;
9076;SDS011;4574;51.072;17.174;2022-09-24T08:43:12;5.77;;;3.27;;
9076;SDS011;4574;51.072;17.174;2022-09-24T08:45:52;5.97;;;3.17;;
9076;SDS011;4574;51.072;17.174;2022-09-24T08:48:43;4.73;;;3.20;;
9076;SDS011;4574;51.072;17.174;2022-09-24T08:51:15;9.53;;;3.10;;
9076;SDS011;4574;51.072;17.174;2022-09-24T08:53:46;3.97;;;3.03;;
9076;SDS011;4574;51.072;17.174;2022-09-24T08:56:22;3.80;;;2.90;;
9076;SDS011;4574;51.072;17.174;2022-09-24T08:58:55;4.93;;;2.40;;
9076;SDS011;4574;51.072;17.174;2022-09-24T09:01:30;3.70;;;2.80;;
9076;SDS011;4574;51.072;17.174;2022-09-24T09:04:09;3.60;;;2.40;;
9076;SDS011;4574;51.072;17.174;2022-09-24T09:06:51;4.20;;;2.57;;
9076;SDS011;4574;51.072;17.174;2022-09-24T09:09:32;2.90;;;2.33;;
9076;SDS011;4574;51.072;17.174;2022-09-24T09:12:10;4.03;;;2.60;;
9076;SDS011;4574;51.072;17.174;2022-09-24T09:14:44;3.43;;;2.43;;
9076;SDS011;4574;51.072;17.174;2022-09-24T09:17:23;4.23;;;2.53;;
9076;SDS011;4574;51.072;17.174;2022-09-24T09:19:59;3.07;;;2.40;;
9076;SDS011;4574;51.072;17.174;2022-09-24T09:22:33;5.40;;;3.10;;
9076;SDS011;4574;51.072;17.174;2022-09-24T09:25:11;4.30;;;2.67;;
9076;SDS011;4574;51.072;17.174;2022-09-24T09:27:46;4.47;;;2.53;;
9076;SDS011;4574;51.072;17.174;2022-09-24T09:30:25;4.50;;;2.83;;
9076;SDS011;4574;51.072;17.174;2022-09-24T09:33:10;3.13;;;2.40;;
9076;SDS011;4574;51.072;17.174;2022-09-24T09:35:54;6.40;;;2.90;;
9076;SDS011;4574;51.072;17.174;2022-09-24T09:38:32;5.57;;;2.70;;
9076;SDS011;4574;51.072;17.174;2022-09-24T09:41:10;2.67;;;2.37;;
9076;SDS011;4574;51.072;17.174;2022-09-24T09:43:46;4.60;;;2.53;;
9076;SDS011;4574;51.072;17.174;2022-09-24T09:46:17;3.67;;;2.47;;
9076;SDS011;4574;51.072;17.174;2022-09-24T09:48:51;4.07;;;2.37;;
9076;SDS011;4574;51.072;17.174;2022-09-24T09:51:26;4.73;;;3.87;;
9076;SDS011;4574;51.072;17.174;2022-09-24T09:54:02;5.23;;;2.93;;
9076;SDS011;4574;51.072;17.174;2022-09-24T09:56:32;24.07;;;9.90;;
9076;SDS011;4574;51.072;17.174;2022-09-24T09:59:05;3.73;;;2.60;;
9076;SDS011;4574;51.072;17.174;2022-09-24T10:01:45;3.80;;;2.77;;
9076;SDS011;4574;51.072;17.174;2022-09-24T10:04:24;6.57;;;2.40;;
9076;SDS011;4574;51.072;17.174;2022-09-24T10:07:04;4.43;;;2.57;;
9076;SDS011;4574;51.072;17.174;2022-09-24T10:09:35;3.70;;;2.63;;
9076;SDS011;4574;51.072;17.174;2022-09-24T10:12:12;4.23;;;2.70;;
9076;SDS011;4574;51.072;17.174;2022-09-24T10:14:54;3.83;;;2.67;;
9076;SDS011;4574;51.072;17.174;2022-09-24T10:17:28;4.57;;;3.17;;
9076;SDS011;4574;51.072;17.174;2022-09-24T10:20:01;2.87;;;2.57;;
9076;SDS011;4574;51.072;17.174;2022-09-24T10:22:36;4.03;;;2.50;;
9076;SDS011;4574;51.072;17.174;2022-09-24T10:25:14;3.60;;;2.73;;
9076;SDS011;4574;51.072;17.174;2022-09-24T10:27:47;5.30;;;2.67;;
9076;SDS011;4574;51.072;17.174;2022-09-24T10:30:16;3.43;;;2.60;;
9076;SDS011;4574;51.072;17.174;2022-09-24T10:33:00;4.47;;;3.00;;
9076;SDS011;4574;51.072;17.174;2022-09-24T10:35:31;3.47;;;2.70;;
9076;SDS011;4574;51.072;17.174;2022-09-24T10:38:02;5.70;;;2.73;;
9076;SDS011;4574;51.072;17.174;2022-09-24T10:40:42;4.37;;;2.73;;
9076;SDS011;4574;51.072;17.174;2022-09-24T10:43:15;5.23;;;2.93;;
9076;SDS011;4574;51.072;17.174;2022-09-24T10:45:55;3.37;;;2.40;;
9076;SDS011;4574;51.072;17.174;2022-09-24T10:48:44;3.90;;;2.97;;
9076;SDS011;4574;51.072;17.174;2022-09-24T10:51:23;3.77;;;2.50;;
9076;SDS011;4574;51.072;17.174;2022-09-24T10:54:04;3.27;;;2.17;;
9076;SDS011;4574;51.072;17.174;2022-09-24T10:56:45;2.60;;;2.30;;
9076;SDS011;4574;51.072;17.174;2022-09-24T10:59:30;2.33;;;2.13;;
9076;SDS011;4574;51.072;17.174;2022-09-24T11:02:15;4.13;;;2.50;;
9076;SDS011;4574;51.072;17.174;2022-09-24T11:04:58;7.17;;;2.77;;
9076;SDS011;4574;51.072;17.174;2022-09-24T11:07:37;3.90;;;2.30;;
9076;SDS011;4574;51.072;17.174;2022-09-24T11:10:22;2.30;;;2.03;;
9076;SDS011;4574;51.072;17.174;2022-09-24T11:13:05;3.27;;;2.60;;
9076;SDS011;4574;51.072;17.174;2022-09-24T11:18:43;2.13;;;1.93;;
9076;SDS011;4574;51.072;17.174;2022-09-24T11:21:25;3.17;;;2.10;;
9076;SDS011;4574;51.072;17.174;2022-09-24T11:24:09;3.80;;;1.80;;
9076;SDS011;4574;51.072;17.174;2022-09-24T11:26:56;2.77;;;2.07;;
9076;SDS011;4574;51.072;17.174;2022-09-24T11:29:40;2.83;;;2.20;;
9076;SDS011;4574;51.072;17.174;2022-09-24T11:32:21;2.23;;;2.03;;
9076;SDS011;4574;51.072;17.174;2022-09-24T11:34:58;9.13;;;2.20;;
9076;SDS011;4574;51.072;17.174;2022-09-24T11:37:45;27.83;;;10.50;;
9076;SDS011;4574;51.072;17.174;2022-09-24T11:40:27;4.73;;;2.83;;
9076;SDS011;4574;51.072;17.174;2022-09-24T11:43:10;137.90;;;47.20;;
9076;SDS011;4574;51.072;17.174;2022-09-24T11:46:04;18.90;;;8.57;;
9076;SDS011;4574;51.072;17.174;2022-09-24T11:51:44;1.97;;;1.77;;
9076;SDS011;4574;51.072;17.174;2022-09-24T11:54:24;4.37;;;1.80;;
9076;SDS011;4574;51.072;17.174;2022-09-24T11:56:58;2.07;;;1.90;;
9076;SDS011;4574;51.072;17.174;2022-09-24T11:59:35;3.23;;;2.13;;
9076;SDS011;4574;51.072;17.174;2022-09-24T12:02:12;3.83;;;2.10;;
9076;SDS011;4574;51.072;17.174;2022-09-24T12:04:50;2.63;;;1.90;;
9076;SDS011;4574;51.072;17.174;2022-09-24T12:07:28;2.27;;;2.03;;
9076;SDS011;4574;51.072;17.174;2022-09-24T12:10:03;2.43;;;2.10;;
9076;SDS011;4574;51.072;17.174;2022-09-24T12:12:51;2.47;;;2.10;;
9076;SDS011;4574;51.072;17.174;2022-09-24T12:15:22;4.10;;;2.30;;
9076;SDS011;4574;51.072;17.174;2022-09-24T12:17:54;5.70;;;2.20;;
9076;SDS011;4574;51.072;17.174;2022-09-24T12:20:28;6.53;;;2.47;;
9076;SDS011;4574;51.072;17.174;2022-09-24T12:22:58;5.77;;;2.07;;
9076;SDS011;4574;51.072;17.174;2022-09-24T12:25:33;2.20;;;2.00;;
9076;SDS011;4574;51.072;17.174;2022-09-24T12:28:08;3.70;;;2.00;;
9076;SDS011;4574;51.072;17.174;2022-09-24T12:30:39;3.67;;;1.90;;
9076;SDS011;4574;51.072;17.174;2022-09-24T12:33:37;1.80;;;1.70;;
9076;SDS011;4574;51.072;17.174;2022-09-24T12:36:11;1.97;;;1.70;;
9076;SDS011;4574;51.072;17.174;2022-09-24T12:38:46;1.87;;;1.60;;
9076;SDS011;4574;51.072;17.174;2022-09-24T12:41:29;2.77;;;1.80;;
9076;SDS011;4574;51.072;17.174;2022-09-24T12:44:01;2.37;;;1.97;;
9076;SDS011;4574;51.072;17.174;2022-09-24T12:46:42;2.40;;;1.53;;
9076;SDS011;4574;51.072;17.174;2022-09-24T12:49:17;1.80;;;1.40;;
9076;SDS011;4574;51.072;17.174;2022-09-24T12:51:54;2.13;;;1.53;;
9076;SDS011;4574;51.072;17.174;2022-09-24T12:54:26;2.20;;;1.67;;
9076;SDS011;4574;51.072;17.174;2022-09-24T12:57:08;2.90;;;1.80;;
9076;SDS011;4574;51.072;17.174;2022-09-24T12:59:47;1.90;;;1.40;;
9076;SDS011;4574;51.072;17.174;2022-09-24T13:02:18;1.40;;;1.30;;
9076;SDS011;4574;51.072;17.174;2022-09-24T13:04:50;2.87;;;1.80;;
9076;SDS011;4574;51.072;17.174;2022-09-24T13:07:33;1.87;;;1.53;;
9076;SDS011;4574;51.072;17.174;2022-09-24T13:10:10;5.43;;;2.40;;
9076;SDS011;4574;51.072;17.174;2022-09-24T13:12:49;1.97;;;1.53;;
9076;SDS011;4574;51.072;17.174;2022-09-24T13:18:17;1.63;;;1.53;;
9076;SDS011;4574;51.072;17.174;2022-09-24T13:20:59;1.87;;;1.30;;
9076;SDS011;4574;51.072;17.174;2022-09-24T13:23:32;1.70;;;1.60;;
9076;SDS011;4574;51.072;17.174;2022-09-24T13:26:25;2.13;;;1.40;;
9076;SDS011;4574;51.072;17.174;2022-09-24T13:28:57;2.40;;;1.37;;
9076;SDS011;4574;51.072;17.174;2022-09-24T13:31:39;1.27;;;1.20;;
9076;SDS011;4574;51.072;17.174;2022-09-24T13:34:16;1.57;;;1.47;;
9076;SDS011;4574;51.072;17.174;2022-09-24T13:36:47;1.30;;;1.20;;
9076;SDS011;4574;51.072;17.174;2022-09-24T13:39:23;1.67;;;1.50;;
9076;SDS011;4574;51.072;17.174;2022-09-24T13:42:01;1.50;;;1.40;;
9076;SDS011;4574;51.072;17.174;2022-09-24T13:44:37;3.30;;;1.50;;
9076;SDS011;4574;51.072;17.174;2022-09-24T13:47:11;1.30;;;1.20;;
9076;SDS011;4574;51.072;17.174;2022-09-24T13:49:43;2.30;;;1.50;;
9076;SDS011;4574;51.072;17.174;2022-09-24T13:52:16;2.27;;;1.70;;
9076;SDS011;4574;51.072;17.174;2022-09-24T13:54:56;2.70;;;1.33;;
9076;SDS011;4574;51.072;17.174;2022-09-24T13:57:29;1.53;;;1.40;;
9076;SDS011;4574;51.072;17.174;2022-09-24T14:00:11;4.43;;;2.10;;
9076;SDS011;4574;51.072;17.174;2022-09-24T14:02:42;2.50;;;1.50;;
9076;SDS011;4574;51.072;17.174;2022-09-24T14:05:19;1.50;;;1.33;;
9076;SDS011;4574;51.072;17.174;2022-09-24T14:07:56;1.27;;;1.17;;
9076;SDS011;4574;51.072;17.174;2022-09-24T14:10:28;1.57;;;1.27;;
9076;SDS011;4574;51.072;17.174;2022-09-24T14:13:00;1.30;;;1.20;;
9076;SDS011;4574;51.072;17.174;2022-09-24T14:15:32;1.33;;;1.10;;
9076;SDS011;4574;51.072;17.174;2022-09-24T14:18:02;3.37;;;1.60;;
9076;SDS011;4574;51.072;17.174;2022-09-24T14:20:37;4.10;;;1.70;;
9076;SDS011;4574;51.072;17.174;2022-09-24T14:23:05;1.27;;;1.17;;
9076;SDS011;4574;51.072;17.174;2022-09-24T14:25:44;2.37;;;1.50;;
9076;SDS011;4574;51.072;17.174;2022-09-24T14:28:15;2.63;;;1.30;;
9076;SDS011;4574;51.072;17.174;2022-09-24T14:30:49;1.30;;;1.20;;
9076;SDS011;4574;51.072;17.174;2022-09-24T14:33:21;3.07;;;1.73;;
9076;SDS011;4574;51.072;17.174;2022-09-24T14:35:52;1.83;;;1.57;;
9076;SDS011;4574;51.072;17.174;2022-09-24T14:38:23;1.60;;;1.50;;
9076;SDS011;4574;51.072;17.174;2022-09-24T14:40:55;1.87;;;1.30;;
9076;SDS011;4574;51.072;17.174;2022-09-24T14:43:29;1.50;;;1.17;;
9076;SDS011;4574;51.072;17.174;2022-09-24T14:46:06;1.60;;;1.50;;
9076;SDS011;4574;51.072;17.174;2022-09-24T14:48:41;1.30;;;1.20;;
9076;SDS011;4574;51.072;17.174;2022-09-24T14:51:20;2.63;;;1.23;;
9076;SDS011;4574;51.072;17.174;2022-09-24T14:53:57;1.83;;;1.43;;
9076;SDS011;4574;51.072;17.174;2022-09-24T14:56:28;4.93;;;2.60;;
9076;SDS011;4574;51.072;17.174;2022-09-24T14:58:58;1.90;;;1.73;;
9076;SDS011;4574;51.072;17.174;2022-09-24T15:01:30;3.00;;;1.90;;
9076;SDS011;4574;51.072;17.174;2022-09-24T15:04:00;2.33;;;1.97;;
9076;SDS011;4574;51.072;17.174;2022-09-24T15:06:31;2.30;;;2.10;;
9076;SDS011;4574;51.072;17.174;2022-09-24T15:09:02;2.00;;;1.80;;
9076;SDS011;4574;51.072;17.174;2022-09-24T15:11:33;3.53;;;2.67;;
9076;SDS011;4574;51.072;17.174;2022-09-24T15:14:11;3.03;;;1.90;;
9076;SDS011;4574;51.072;17.174;2022-09-24T15:16:43;3.17;;;2.83;;
9076;SDS011;4574;51.072;17.174;2022-09-24T15:19:14;14.27;;;8.73;;
9076;SDS011;4574;51.072;17.174;2022-09-24T15:21:45;22.07;;;14.67;;
9076;SDS011;4574;51.072;17.174;2022-09-24T15:24:15;15.10;;;10.33;;
9076;SDS011;4574;51.072;17.174;2022-09-24T15:26:44;11.70;;;7.40;;
9076;SDS011;4574;51.072;17.174;2022-09-24T15:29:16;9.47;;;6.70;;
9076;SDS011;4574;51.072;17.174;2022-09-24T15:31:52;43.80;;;28.67;;
9076;SDS011;4574;51.072;17.174;2022-09-24T15:34:22;54.00;;;33.80;;
9076;SDS011;4574;51.072;17.174;2022-09-24T15:36:51;27.03;;;19.13;;
9076;SDS011;4574;51.072;17.174;2022-09-24T15:39:22;39.93;;;26.37;;
9076;SDS011;4574;51.072;17.174;2022-09-24T15:41:53;9.27;;;5.03;;